Time;durP1;ratioP1;P1;durP2;ratioP2;P2;SDS_P1;SDS_P2;PMS_P1;PMS_P2;Temp;Humidity;BMP_temperature;BMP_pressure;BME280_temperature;BME280_humidity;BME280_pressure;Samples;Min_cycle;Max_cycle;Signal;HPM_P1;HPM_P2
2023/12/09 00:01:42;;;;;;;;;13.25;7.75;;;;;9.62;76.27;100722.63;4946421;28;45534;-64
2023/12/09 00:04:08;;;;;;;;;12.75;7.50;;;;;9.60;76.36;100724.44;4940127;28;45642;-63
2023/12/09 00:06:34;;;;;;;;;12.50;9.00;;;;;9.59;76.38;100716.63;4939261;28;48171;-64
2023/12/09 00:08:59;;;;;;;;;17.50;11.00;;;;;9.53;76.35;100709.78;4932775;28;45402;-63
2023/12/09 00:11:24;;;;;;;;;15.00;8.75;;;;;9.50;76.60;100696.78;4940151;28;72948;-64
2023/12/09 00:13:51;;;;;;;;;11.75;8.25;;;;;9.47;76.65;100702.09;4945472;28;67728;-64
2023/12/09 00:16:18;;;;;;;;;14.75;11.75;;;;;9.45;76.77;100699.50;4941675;28;46010;-64
2023/12/09 00:18:44;;;;;;;;;14.75;11.25;;;;;9.45;76.42;100698.66;4941030;28;45351;-63
2023/12/09 00:21:09;;;;;;;;;14.50;11.75;;;;;9.42;76.20;100693.50;4941006;28;45680;-64
2023/12/09 00:23:35;;;;;;;;;19.00;13.50;;;;;9.36;76.42;100691.88;4948848;28;46236;-64
2023/12/09 00:26:00;;;;;;;;;16.50;14.00;;;;;9.35;76.54;100702.34;4947964;28;71327;-64
2023/12/09 00:28:26;;;;;;;;;22.00;14.00;;;;;9.34;76.60;100701.50;4943909;28;69204;-64
2023/12/09 00:30:51;;;;;;;;;16.75;12.00;;;;;9.34;76.45;100708.50;4947907;28;45461;-65
2023/12/09 00:33:17;;;;;;;;;15.50;11.50;;;;;9.32;76.59;100700.69;4942955;28;46354;-64
2023/12/09 00:35:42;;;;;;;;;19.00;12.75;;;;;9.30;76.65;100700.72;4938709;28;45351;-63
2023/12/09 00:38:07;;;;;;;;;17.75;13.00;;;;;9.27;76.59;100708.63;4939744;28;69437;-63
2023/12/09 00:40:32;;;;;;;;;12.25;11.00;;;;;9.25;76.36;100714.78;4940417;28;72223;-63
2023/12/09 00:42:58;;;;;;;;;15.00;12.00;;;;;9.20;76.57;100714.88;4955118;28;73060;-63
2023/12/09 00:45:25;;;;;;;;;17.00;13.75;;;;;9.17;76.75;100721.91;4948540;28;45460;-63
2023/12/09 00:47:50;;;;;;;;;15.25;11.50;;;;;9.15;76.82;100716.72;4942964;28;45222;-63
2023/12/09 00:50:16;;;;;;;;;18.00;12.25;;;;;9.12;76.68;100714.19;4941257;28;45505;-63
2023/12/09 00:52:41;;;;;;;;;11.50;11.00;;;;;9.11;76.87;100715.91;4944670;28;45216;-64
2023/12/09 00:55:07;;;;;;;;;14.50;10.00;;;;;9.06;76.70;100709.94;4938987;28;46064;-63
2023/12/09 00:57:32;;;;;;;;;13.75;11.25;;;;;9.04;76.76;100710.88;4940173;28;45248;-64
2023/12/09 00:59:57;;;;;;;;;12.50;8.50;;;;;9.03;76.73;100714.34;4940991;28;73286;-64
2023/12/09 01:02:23;;;;;;;;;14.75;9.75;;;;;8.99;76.71;100699.66;4941005;28;45927;-64
2023/12/09 01:04:48;;;;;;;;;10.25;6.00;;;;;8.98;77.01;100706.66;4956545;28;71993;-64
2023/12/09 01:07:13;;;;;;;;;9.50;7.50;;;;;8.93;76.90;100701.50;4937907;28;69967;-63
2023/12/09 01:09:39;;;;;;;;;12.50;9.00;;;;;8.92;77.12;100691.97;4939343;28;65378;-63
2023/12/09 01:12:04;;;;;;;;;11.25;9.00;;;;;8.93;76.77;100695.44;4939369;28;75520;-64
2023/12/09 01:14:30;;;;;;;;;8.50;7.50;;;;;8.90;77.03;100698.94;4939096;28;45787;-64
2023/12/09 01:16:55;;;;;;;;;11.50;8.50;;;;;8.90;77.29;100695.50;4949347;28;45543;-65
2023/12/09 01:19:21;;;;;;;;;11.75;7.00;;;;;8.90;77.21;100705.94;4941288;28;45433;-64
2023/12/09 01:21:47;;;;;;;;;10.75;6.75;;;;;8.93;77.33;100706.72;4942984;28;46085;-64
2023/12/09 01:24:12;;;;;;;;;16.50;10.00;;;;;8.95;77.17;100704.09;4958170;28;45370;-64
2023/12/09 01:26:38;;;;;;;;;13.00;9.00;;;;;8.97;77.24;100709.28;4943495;28;45442;-64
2023/12/09 01:29:04;;;;;;;;;11.50;7.50;;;;;8.96;77.15;100708.44;4941599;28;73178;-65
2023/12/09 01:31:30;;;;;;;;;13.00;8.75;;;;;8.95;76.89;100698.03;4942504;28;47229;-64
2023/12/09 01:33:56;;;;;;;;;11.00;8.25;;;;;8.93;76.90;100696.28;4948858;28;45330;-65
2023/12/09 01:36:21;;;;;;;;;16.50;8.50;;;;;8.93;77.31;100690.22;4942115;28;45394;-65
2023/12/09 01:38:46;;;;;;;;;12.25;7.75;;;;;8.90;77.14;100696.34;4941295;28;71923;-64
2023/12/09 01:41:12;;;;;;;;;8.75;7.75;;;;;8.92;77.15;100693.72;4942790;28;46240;-65
2023/12/09 01:43:37;;;;;;;;;11.50;10.50;;;;;8.90;77.15;100685.06;4943312;28;61759;-64
2023/12/09 01:46:07;;;;;;;;;9.50;6.00;;;;;8.87;77.08;100688.59;4944527;28;68773;-64
2023/12/09 01:48:33;;;;;;;;;10.25;8.50;;;;;8.86;77.16;100686.03;4938708;28;45520;-64
2023/12/09 01:51:00;;;;;;;;;10.25;7.75;;;;;8.86;77.14;100681.66;4942410;28;46386;-64
2023/12/09 01:53:25;;;;;;;;;19.50;8.75;;;;;8.86;77.55;100679.03;4944150;28;45450;-64
2023/12/09 01:55:51;;;;;;;;;9.50;4.75;;;;;8.84;77.23;100680.81;4941714;28;68131;-64
2023/12/09 01:58:17;;;;;;;;;11.50;7.75;;;;;8.85;77.40;100679.94;4942672;28;72838;-64
2023/12/09 02:00:43;;;;;;;;;10.75;7.00;;;;;8.87;77.44;100674.66;4939626;28;47284;-64
2023/12/09 02:03:08;;;;;;;;;10.75;8.50;;;;;8.86;77.27;100671.22;4953736;28;73183;-65
2023/12/09 02:05:33;;;;;;;;;13.25;9.00;;;;;8.89;77.51;100667.69;4928131;28;71444;-65
2023/12/09 02:07:59;;;;;;;;;11.00;9.00;;;;;8.88;77.41;100661.59;4938734;28;65599;-65
2023/12/09 02:10:24;;;;;;;;;15.25;8.75;;;;;8.89;77.32;100659.88;4941752;28;47523;-64
2023/12/09 02:13:08;;;;;;;;;15.50;10.00;;;;;8.89;77.51;100647.66;4939171;28;64811;-64
2023/12/09 02:15:42;;;;;;;;;14.00;10.75;;;;;8.89;77.32;100633.78;4945069;28;45242;-64
2023/12/09 02:18:08;;;;;;;;;15.25;10.50;;;;;8.90;77.39;100638.94;4943086;28;45674;-63
2023/12/09 02:20:33;;;;;;;;;12.50;8.75;;;;;8.91;77.46;100630.22;4947694;28;46331;-65
2023/12/09 02:23:06;;;;;;;;;12.75;10.25;;;;;8.91;77.35;100629.38;4941011;28;47474;-65
2023/12/09 02:25:31;;;;;;;;;10.75;9.00;;;;;8.93;77.33;100631.03;4957453;28;45268;-65
2023/12/09 02:27:59;;;;;;;;;15.75;9.25;;;;;8.95;77.35;100617.13;4941015;28;50371;-65
2023/12/09 02:30:30;;;;;;;;;17.00;10.75;;;;;8.97;77.26;100604.88;4942077;28;53681;-65
2023/12/09 02:32:56;;;;;;;;;17.00;12.00;;;;;9.01;77.18;100604.78;4960090;28;47580;-63
2023/12/09 02:35:22;;;;;;;;;13.75;10.00;;;;;9.04;77.20;100593.41;4944080;28;45240;-64
2023/12/09 02:37:49;;;;;;;;;13.50;10.00;;;;;9.08;77.19;100588.09;4952090;28;45303;-63
2023/12/09 02:40:17;;;;;;;;;15.00;10.25;;;;;9.12;76.87;100594.09;4942530;28;46452;-64
2023/12/09 02:42:43;;;;;;;;;12.50;9.75;;;;;9.12;76.77;100594.94;4941300;28;45946;-64
2023/12/09 02:45:09;;;;;;;;;14.50;11.00;;;;;9.14;76.80;100587.09;4955817;28;45458;-64
2023/12/09 02:47:34;;;;;;;;;16.00;11.00;;;;;9.17;76.52;100583.53;4937947;28;45478;-64
2023/12/09 02:49:59;;;;;;;;;17.25;12.00;;;;;9.18;76.54;100583.50;4941089;28;74193;-65
2023/12/09 02:52:25;;;;;;;;;12.25;11.00;;;;;9.21;76.70;100586.03;4940874;28;45454;-64
2023/12/09 02:54:50;;;;;;;;;9.00;8.00;;;;;9.22;76.35;100581.66;4941473;28;68989;-64
2023/12/09 02:57:16;;;;;;;;;12.75;11.00;;;;;9.22;76.33;100579.91;4946523;28;45296;-64
2023/12/09 02:59:41;;;;;;;;;12.25;11.00;;;;;9.23;76.48;100586.00;4944905;28;46942;-64
2023/12/09 03:02:06;;;;;;;;;15.25;12.00;;;;;9.18;76.30;100567.84;4945524;28;68450;-64
2023/12/09 03:04:32;;;;;;;;;19.25;12.00;;;;;9.19;76.35;100563.47;4946643;28;49150;-64
2023/12/09 03:06:57;;;;;;;;;15.50;11.25;;;;;9.19;76.46;100551.28;4939405;28;45280;-64
2023/12/09 03:09:23;;;;;;;;;16.50;12.50;;;;;9.18;76.17;100551.31;4945294;28;47088;-65
2023/12/09 03:11:48;;;;;;;;;14.50;9.75;;;;;9.18;76.42;100544.34;4939426;28;71951;-63
2023/12/09 03:14:13;;;;;;;;;14.75;11.75;;;;;9.18;76.39;100533.91;4939503;28;69174;-64
2023/12/09 03:16:39;;;;;;;;;12.00;9.25;;;;;9.20;76.41;100532.09;4941360;28;45251;-64
2023/12/09 03:19:04;;;;;;;;;15.50;9.75;;;;;9.22;76.64;100519.00;4941286;28;45786;-64
2023/12/09 03:21:30;;;;;;;;;21.25;9.75;;;;;9.24;76.45;100512.00;4935732;28;45175;-64
2023/12/09 03:23:55;;;;;;;;;14.50;10.00;;;;;9.23;76.41;100515.50;4944610;28;45319;-64
2023/12/09 03:26:20;;;;;;;;;12.50;11.25;;;;;9.24;76.59;100507.66;4937548;28;73241;-63
2023/12/09 03:28:46;;;;;;;;;14.25;10.75;;;;;9.22;76.40;100512.03;4948455;28;75976;-64
2023/12/09 03:31:13;;;;;;;;;10.50;8.50;;;;;9.23;76.51;100500.69;4937847;28;61327;-65
2023/12/09 03:33:38;;;;;;;;;10.75;9.50;;;;;9.23;76.60;100484.19;4951115;28;45397;-65
2023/12/09 03:36:05;;;;;;;;;13.75;9.00;;;;;9.24;76.81;100489.38;4945068;28;45369;-65
2023/12/09 03:38:30;;;;;;;;;15.25;9.75;;;;;9.25;76.76;100493.69;4945237;28;47213;-64
2023/12/09 03:40:56;;;;;;;;;13.75;9.50;;;;;9.26;76.49;100497.13;4940664;28;45390;-65
2023/12/09 03:43:21;;;;;;;;;17.25;12.00;;;;;9.28;76.75;100491.00;4945854;28;67012;-65
2023/12/09 03:45:46;;;;;;;;;11.50;9.25;;;;;9.30;76.86;100486.59;4939906;28;71867;-65
2023/12/09 03:48:11;;;;;;;;;15.75;9.50;;;;;9.31;76.76;100475.25;4941600;28;46178;-65
2023/12/09 03:50:37;;;;;;;;;14.00;9.75;;;;;9.30;76.73;100465.69;4937484;28;70046;-65
2023/12/09 03:53:03;;;;;;;;;10.75;9.00;;;;;9.33;76.67;100459.56;4946967;28;45226;-65
2023/12/09 03:55:28;;;;;;;;;13.50;10.00;;;;;9.30;76.58;100451.78;4939014;28;45325;-65
2023/12/09 03:57:53;;;;;;;;;6.75;2.00;;;;;9.35;76.51;100459.47;4946477;28;74579;-65
2023/12/09 04:00:19;;;;;;;;;10.75;9.25;;;;;9.35;76.64;100460.38;4944906;28;71437;-64
2023/12/09 04:02:44;;;;;;;;;11.00;5.00;;;;;9.37;76.60;100452.50;4939347;28;45295;-64
2023/12/09 04:05:10;;;;;;;;;9.75;6.50;;;;;9.38;76.76;100447.19;4948581;28;73230;-63
2023/12/09 04:07:36;;;;;;;;;11.00;8.25;;;;;9.35;76.94;100438.59;4941654;28;74552;-63
2023/12/09 04:10:02;;;;;;;;;13.75;10.00;;;;;9.38;76.88;100431.53;4942809;28;45326;-65
2023/12/09 04:12:27;;;;;;;;;16.25;7.75;;;;;9.42;77.01;100419.25;4940545;28;45446;-64
2023/12/09 04:14:53;;;;;;;;;9.75;6.75;;;;;9.41;76.60;100417.56;4938726;28;72886;-61
2023/12/09 04:17:19;;;;;;;;;10.50;7.00;;;;;9.41;76.88;100415.78;4940098;28;75702;-63
2023/12/09 04:19:44;;;;;;;;;11.50;6.25;;;;;9.41;77.05;100407.94;4957239;28;45315;-63
2023/12/09 04:22:10;;;;;;;;;11.25;6.00;;;;;9.40;76.63;100398.44;4935419;28;69131;-65
2023/12/09 04:24:35;;;;;;;;;8.75;8.25;;;;;9.41;76.77;100407.94;4943674;28;45192;-63
2023/12/09 04:27:01;;;;;;;;;12.00;6.25;;;;;9.45;76.92;100406.13;4940215;28;45974;-64
2023/12/09 04:29:26;;;;;;;;;19.00;8.50;;;;;9.46;77.08;100410.44;4949722;28;70305;-63
2023/12/09 04:31:51;;;;;;;;;9.75;6.25;;;;;9.47;76.91;100410.41;4954396;28;67221;-64
2023/12/09 04:34:17;;;;;;;;;12.25;9.50;;;;;9.48;76.98;100412.09;4938417;28;45533;-64
2023/12/09 04:36:42;;;;;;;;;11.75;7.50;;;;;9.50;76.74;100410.31;4942638;28;75444;-64
2023/12/09 04:39:07;;;;;;;;;8.75;4.25;;;;;9.52;76.78;100410.25;4944952;28;72221;-64
2023/12/09 04:41:33;;;;;;;;;12.75;6.50;;;;;9.54;76.97;100405.84;4941703;28;45482;-63
2023/12/09 04:43:58;;;;;;;;;8.00;6.00;;;;;9.55;76.89;100406.72;4938273;28;73190;-63
2023/12/09 04:46:23;;;;;;;;;7.25;5.25;;;;;9.56;76.93;100398.84;4921305;28;74576;-64
2023/12/09 04:48:49;;;;;;;;;10.50;5.50;;;;;9.56;76.98;100379.69;4941054;28;57080;-63
2023/12/09 04:51:15;;;;;;;;;14.50;5.00;;;;;9.61;77.10;100380.41;4943058;28;67500;-64
2023/12/09 04:53:41;;;;;;;;;9.75;6.25;;;;;9.64;76.58;100375.09;4942284;28;45624;-63
2023/12/09 04:56:07;;;;;;;;;8.00;5.75;;;;;9.63;76.86;100366.44;4948309;28;46307;-62
2023/12/09 04:58:33;;;;;;;;;6.75;5.00;;;;;9.66;76.75;100368.06;4943781;28;45518;-62
2023/12/09 05:00:58;;;;;;;;;10.50;5.50;;;;;9.64;76.58;100367.28;4944717;28;45389;-63
2023/12/09 05:03:23;;;;;;;;;7.75;3.25;;;;;9.65;77.03;100374.19;4944481;28;73124;-64
2023/12/09 05:05:48;;;;;;;;;7.75;6.00;;;;;9.68;76.84;100374.09;4940805;28;74016;-63
2023/12/09 05:08:14;;;;;;;;;7.50;5.75;;;;;9.69;77.11;100365.38;4944886;28;64980;-63
2023/12/09 05:10:39;;;;;;;;;9.25;5.00;;;;;9.71;76.82;100365.34;4945227;28;69315;-63
2023/12/09 05:13:05;;;;;;;;;8.00;4.75;;;;;9.71;76.89;100349.66;4948029;28;45378;-63
2023/12/09 05:15:30;;;;;;;;;11.50;6.00;;;;;9.70;76.81;100346.19;4962058;28;45543;-64
2023/12/09 05:17:56;;;;;;;;;8.00;4.75;;;;;9.69;76.89;100344.47;4951125;28;47581;-63
2023/12/09 05:20:22;;;;;;;;;8.00;5.25;;;;;9.73;77.08;100340.03;4943711;28;45468;-63
2023/12/09 05:22:47;;;;;;;;;7.50;5.00;;;;;9.73;77.14;100332.19;4944664;28;45525;-64
2023/12/09 05:25:13;;;;;;;;;6.25;4.75;;;;;9.72;77.03;100325.22;4943576;28;46072;-63
2023/12/09 05:27:39;;;;;;;;;6.25;5.75;;;;;9.73;76.81;100340.03;4942173;28;45326;-63
2023/12/09 05:30:05;;;;;;;;;4.00;4.00;;;;;9.72;77.04;100325.22;4943006;28;45573;-63
2023/12/09 05:32:30;;;;;;;;;4.75;4.75;;;;;9.70;77.25;100306.97;4944019;28;45517;-64
2023/12/09 05:34:56;;;;;;;;;5.75;4.25;;;;;9.71;77.52;100302.63;4942116;28;67700;-63
2023/12/09 05:37:21;;;;;;;;;7.75;5.00;;;;;9.70;77.31;100293.91;4938817;28;71369;-64
2023/12/09 05:39:46;;;;;;;;;7.50;5.00;;;;;9.71;77.09;100286.97;4946629;28;45446;-63
2023/12/09 05:42:11;;;;;;;;;11.00;5.25;;;;;9.71;77.28;100286.97;4942807;28;72974;-64
2023/12/09 05:44:37;;;;;;;;;4.50;4.50;;;;;9.73;77.51;100277.31;4950979;28;76783;-63
2023/12/09 05:47:02;;;;;;;;;6.00;3.50;;;;;9.72;77.27;100272.97;4942400;28;45453;-64
2023/12/09 05:49:28;;;;;;;;;5.75;5.00;;;;;9.70;77.41;100265.19;4943647;28;45482;-64
2023/12/09 05:51:53;;;;;;;;;7.75;4.00;;;;;9.72;77.57;100265.13;4942157;28;59803;-64
2023/12/09 05:54:18;;;;;;;;;11.00;5.00;;;;;9.72;77.66;100255.56;4941282;28;75555;-63
2023/12/09 05:56:50;;;;;;;;;7.50;4.00;;;;;9.73;77.89;100252.03;4957263;28;51690;-63
2023/12/09 05:59:15;;;;;;;;;3.75;2.50;;;;;9.69;77.67;100240.81;4945543;28;45520;-63
2023/12/09 06:01:41;;;;;;;;;7.50;3.50;;;;;9.67;78.38;100234.78;4939941;28;71656;-63
2023/12/09 06:04:06;;;;;;;;;4.25;3.00;;;;;9.64;78.44;100232.25;4942229;28;62663;-63
2023/12/09 06:06:31;;;;;;;;;5.25;3.00;;;;;9.68;78.18;100233.03;4945322;28;59974;-64
2023/12/09 06:08:57;;;;;;;;;6.25;3.25;;;;;9.66;78.45;100222.63;4943803;28;66094;-63
2023/12/09 06:11:22;;;;;;;;;5.00;3.00;;;;;9.67;78.25;100228.72;4940910;28;73305;-64
2023/12/09 06:13:47;;;;;;;;;6.00;3.25;;;;;9.67;78.49;100220.88;4941206;28;74061;-64
2023/12/09 06:16:19;;;;;;;;;5.50;3.00;;;;;9.65;78.31;100207.84;4943354;28;63201;-63
2023/12/09 06:18:45;;;;;;;;;5.00;2.00;;;;;9.65;78.71;100210.47;4942472;28;45547;-63
2023/12/09 06:21:25;;;;;;;;;5.75;4.00;;;;;9.64;78.65;100195.69;4938657;28;45489;-63
2023/12/09 06:23:50;;;;;;;;;4.00;1.25;;;;;9.64;78.53;100182.63;4942175;28;46360;-64
2023/12/09 06:26:16;;;;;;;;;10.00;3.00;;;;;9.63;78.32;100175.72;4940314;28;45397;-63
2023/12/09 06:28:41;;;;;;;;;4.25;4.25;;;;;9.65;79.00;100175.63;4947163;28;45593;-64
2023/12/09 06:31:07;;;;;;;;;4.75;4.00;;;;;9.65;79.02;100173.03;4940384;28;73258;-64
2023/12/09 06:33:33;;;;;;;;;6.25;4.00;;;;;9.66;79.17;100159.91;4950749;28;46445;-64
2023/12/09 06:35:58;;;;;;;;;4.00;4.00;;;;;9.66;80.62;100154.69;4955420;28;45898;-63
2023/12/09 06:38:24;;;;;;;;;5.50;4.00;;;;;9.68;80.24;100152.03;4939940;28;67966;-63
2023/12/09 06:40:49;;;;;;;;;7.00;3.00;;;;;9.68;79.85;100146.81;4955849;28;45318;-65
2023/12/09 06:43:14;;;;;;;;;3.00;2.00;;;;;9.68;79.69;100149.41;4941548;28;75339;-65
2023/12/09 06:45:40;;;;;;;;;9.75;2.00;;;;;9.68;79.84;100132.00;4941866;28;72187;-63
2023/12/09 06:48:05;;;;;;;;;4.00;3.50;;;;;9.65;79.87;100129.47;4942742;28;60471;-65
2023/12/09 06:50:30;;;;;;;;;4.75;4.00;;;;;9.64;80.39;100122.53;4941455;28;72933;-65
2023/12/09 06:52:55;;;;;;;;;6.00;4.00;;;;;9.63;80.12;100113.00;4943567;28;76029;-65
2023/12/09 06:55:21;;;;;;;;;2.00;2.00;;;;;9.61;85.44;100119.16;4946049;28;67731;-65
2023/12/09 06:57:46;;;;;;;;;6.50;3.00;;;;;9.63;82.05;100120.84;4942493;28;45323;-62
2023/12/09 07:00:12;;;;;;;;;4.50;3.00;;;;;9.64;81.20;100114.69;4941596;28;66743;-64
2023/12/09 07:02:38;;;;;;;;;3.25;3.00;;;;;9.65;80.93;100116.41;4941762;28;45318;-65
2023/12/09 07:05:04;;;;;;;;;2.25;2.25;;;;;9.68;80.81;100123.28;4944090;28;45865;-65
2023/12/09 07:07:29;;;;;;;;;4.00;2.50;;;;;9.69;80.92;100104.94;4942095;28;45496;-65
2023/12/09 07:09:56;;;;;;;;;6.75;3.00;;;;;9.67;82.04;100100.69;4955846;28;45296;-62
2023/12/09 07:12:21;;;;;;;;;4.00;2.00;;;;;9.69;81.30;100096.28;4941354;28;45310;-64
2023/12/09 07:14:47;;;;;;;;;5.00;2.50;;;;;9.72;81.00;100095.28;4944008;28;45169;-64
2023/12/09 07:17:12;;;;;;;;;4.50;3.50;;;;;9.73;81.18;100084.81;4942265;28;64870;-64
2023/12/09 07:19:37;;;;;;;;;3.00;2.00;;;;;9.71;81.01;100064.88;4940133;28;72109;-63
2023/12/09 07:22:03;;;;;;;;;4.75;2.00;;;;;9.72;81.44;100059.59;4942459;28;74978;-63
2023/12/09 07:24:28;;;;;;;;;2.50;1.75;;;;;9.71;81.89;100057.88;4942433;28;45348;-63
2023/12/09 07:26:54;;;;;;;;;3.50;2.50;;;;;9.73;81.09;100060.44;4944123;28;45263;-64
2023/12/09 07:29:19;;;;;;;;;3.50;1.75;;;;;9.72;81.89;100050.88;4943590;28;71429;-64
2023/12/09 07:31:45;;;;;;;;;4.25;2.00;;;;;9.67;81.35;100044.06;4941611;28;46227;-65
2023/12/09 07:34:16;;;;;;;;;3.25;2.75;;;;;9.66;81.56;100047.56;4939435;28;72067;-65
2023/12/09 07:36:42;;;;;;;;;3.00;3.00;;;;;9.72;81.71;100058.72;4933702;28;45563;-64
2023/12/09 07:39:08;;;;;;;;;4.00;2.25;;;;;9.73;82.14;100050.84;4944485;28;45370;-65
2023/12/09 07:41:34;;;;;;;;;6.00;2.00;;;;;9.77;82.13;100051.56;4946163;28;45411;-65
2023/12/09 07:43:59;;;;;;;;;2.00;1.25;;;;;9.79;82.77;100042.78;4941862;28;45173;-65
2023/12/09 07:46:25;;;;;;;;;8.50;2.75;;;;;9.74;82.33;100018.59;4939533;28;69196;-63
2023/12/09 07:48:50;;;;;;;;;3.00;2.00;;;;;9.77;82.29;100020.22;4937008;28;72352;-63
2023/12/09 07:51:15;;;;;;;;;3.25;3.25;;;;;9.80;82.48;99997.44;4938542;28;60031;-63
2023/12/09 07:53:41;;;;;;;;;3.50;2.00;;;;;9.81;83.02;99986.09;4940498;28;71591;-63
2023/12/09 07:56:06;;;;;;;;;4.50;2.00;;;;;9.79;86.71;100006.22;4939074;28;69262;-63
2023/12/09 07:58:32;;;;;;;;;2.75;2.25;;;;;9.78;87.56;99986.19;4943455;28;45590;-64
2023/12/09 08:01:00;;;;;;;;;5.75;2.00;;;;;9.80;86.25;99968.72;4942356;28;74555;-63
2023/12/09 08:03:25;;;;;;;;;6.00;3.00;;;;;9.80;83.94;99960.03;4941960;28;45442;-64
2023/12/09 08:05:50;;;;;;;;;6.50;2.00;;;;;9.75;83.70;99936.66;4943214;28;45872;-64
2023/12/09 08:08:16;;;;;;;;;2.75;2.25;;;;;9.75;83.55;99927.97;4946795;28;48647;-64
2023/12/09 08:10:41;;;;;;;;;4.50;1.75;;;;;9.74;83.89;99934.09;4944236;28;75500;-64
2023/12/09 08:13:08;;;;;;;;;1.50;1.50;;;;;9.74;82.97;99934.09;4941622;28;45491;-64
2023/12/09 08:15:33;;;;;;;;;2.00;2.00;;;;;9.74;83.81;99906.22;4944833;28;45487;-63
2023/12/09 08:17:59;;;;;;;;;2.25;2.25;;;;;9.75;83.67;99880.94;4941789;28;45371;-64
2023/12/09 08:20:24;;;;;;;;;3.00;2.00;;;;;9.75;84.52;99873.09;4943191;28;52203;-64
2023/12/09 08:22:50;;;;;;;;;3.75;2.00;;;;;9.75;84.23;99876.56;4944311;28;45537;-63
2023/12/09 08:25:15;;;;;;;;;2.00;1.75;;;;;9.77;83.89;99864.28;4948484;28;45875;-64
2023/12/09 08:27:41;;;;;;;;;6.75;2.50;;;;;9.77;83.93;99863.44;4944514;28;45561;-63
2023/12/09 08:30:10;;;;;;;;;2.00;2.00;;;;;9.79;83.96;99844.22;4938789;28;46097;-64
2023/12/09 08:32:38;;;;;;;;;3.00;1.75;;;;;9.79;83.61;99820.69;4941715;28;45742;-65
2023/12/09 08:35:04;;;;;;;;;3.50;1.00;;;;;9.80;84.23;99792.78;4938115;28;45374;-64
2023/12/09 08:37:29;;;;;;;;;3.00;2.00;;;;;9.83;84.33;99801.38;4936828;28;45493;-65
2023/12/09 08:39:56;;;;;;;;;1.50;1.50;;;;;9.80;83.79;99798.03;4939476;28;63426;-64
2023/12/09 08:42:21;;;;;;;;;3.50;1.25;;;;;9.81;83.82;99805.81;4939439;28;45521;-64
2023/12/09 08:44:47;;;;;;;;;3.00;1.25;;;;;9.81;83.56;99787.50;4939915;28;53150;-66
2023/12/09 08:47:12;;;;;;;;;6.50;2.00;;;;;9.80;87.21;99780.56;4940010;28;49299;-65
2023/12/09 08:49:37;;;;;;;;;5.00;1.00;;;;;9.78;85.52;99777.16;4957375;28;73112;-64
2023/12/09 08:52:03;;;;;;;;;2.25;1.00;;;;;9.76;84.65;99765.94;4939497;28;71935;-66
2023/12/09 08:54:28;;;;;;;;;1.50;1.00;;;;;9.72;85.09;99726.91;4940534;28;45318;-66
2023/12/09 08:56:53;;;;;;;;;1.75;1.00;;;;;9.70;85.55;99724.34;4938828;28;66021;-66
2023/12/09 08:59:19;;;;;;;;;2.00;1.50;;;;;9.67;85.18;99714.91;4938328;28;75587;-67
2023/12/09 09:01:44;;;;;;;;;7.00;2.00;;;;;9.68;86.06;99689.63;4941579;28;45319;-66
2023/12/09 09:04:09;;;;;;;;;4.75;2.00;;;;;9.64;85.03;99685.44;4941598;28;69401;-77
2023/12/09 09:06:35;;;;;;;;;1.00;1.00;;;;;9.65;85.56;99684.50;4945286;28;45441;-65
2023/12/09 09:09:00;;;;;;;;;2.00;2.00;;;;;9.63;85.10;99668.91;4941246;28;57336;-62
2023/12/09 09:11:25;;;;;;;;;1.50;1.50;;;;;9.61;86.24;99652.44;4943756;28;54542;-70
2023/12/09 09:13:51;;;;;;;;;1.50;1.00;;;;;9.62;88.89;99654.16;4937008;28;45497;-66
2023/12/09 09:16:16;;;;;;;;;3.00;1.50;;;;;9.65;86.59;99655.78;4939085;28;73247;-66
2023/12/09 09:18:42;;;;;;;;;2.00;1.25;;;;;9.67;85.66;99675.72;4936476;28;47053;-68
2023/12/09 09:21:07;;;;;;;;;1.00;1.00;;;;;9.74;85.92;99667.59;4941761;28;45198;-69
2023/12/09 09:23:34;;;;;;;;;2.25;1.00;;;;;9.76;86.63;99645.75;4957170;28;45403;-65
2023/12/09 09:25:59;;;;;;;;;0.00;0.00;;;;;9.76;87.20;99640.53;4947579;28;45385;-69
2023/12/09 09:28:24;;;;;;;;;2.75;1.50;;;;;9.78;86.29;99635.25;4944773;28;75711;-65
2023/12/09 09:30:50;;;;;;;;;1.00;0.75;;;;;9.80;85.61;99668.22;4947616;28;73407;-69
2023/12/09 09:33:15;;;;;;;;;0.25;0.00;;;;;9.82;85.79;99658.53;4952548;28;67400;-71
2023/12/09 09:35:40;;;;;;;;;2.00;0.00;;;;;9.84;86.53;99648.91;4943240;28;70100;-69
2023/12/09 09:38:06;;;;;;;;;0.00;0.00;;;;;9.87;86.18;99647.91;4946836;28;46971;-68
2023/12/09 09:40:31;;;;;;;;;1.50;0.00;;;;;9.89;85.97;99643.47;4941849;28;45558;-68
2023/12/09 09:43:00;;;;;;;;;0.00;0.00;;;;;9.91;86.01;99640.78;4942613;28;45758;-74
2023/12/09 09:45:30;;;;;;;;;2.50;0.00;;;;;9.93;86.57;99657.25;4945338;28;45540;-68
2023/12/09 09:47:55;;;;;;;;;4.25;1.00;;;;;9.91;87.04;99617.28;4941661;28;46367;-69
2023/12/09 09:50:22;;;;;;;;;2.00;0.75;;;;;9.89;88.18;99639.09;4942207;28;70428;-72
2023/12/09 09:52:48;;;;;;;;;1.50;0.25;;;;;9.87;91.06;99619.16;4947246;28;45428;-69
2023/12/09 09:55:21;;;;;;;;;1.25;0.75;;;;;9.84;91.64;99601.00;4950174;28;45430;-71
2023/12/09 09:57:48;;;;;;;;;1.75;0.50;;;;;9.86;90.20;99604.38;4940954;28;46513;-74
2023/12/09 10:00:15;;;;;;;;;1.00;1.00;;;;;9.87;88.16;99591.28;4945777;28;45709;-71
2023/12/09 10:02:48;;;;;;;;;0.00;0.00;;;;;9.91;89.45;99618.13;4949789;28;45403;-70
2023/12/09 10:05:17;;;;;;;;;2.00;0.75;;;;;9.89;88.80;99596.44;4945024;28;45665;-75
2023/12/09 10:07:43;;;;;;;;;1.00;0.00;;;;;9.93;89.19;99592.75;4949253;28;45518;-68
2023/12/09 10:10:10;;;;;;;;;2.00;1.00;;;;;9.91;89.47;99568.47;4957637;28;45693;-72
2023/12/09 10:12:35;;;;;;;;;0.75;0.00;;;;;9.95;88.92;99561.34;4942524;28;45341;-68
2023/12/09 10:15:01;;;;;;;;;2.25;0.00;;;;;9.92;88.62;99564.94;4952371;28;45387;-71
2023/12/09 10:17:27;;;;;;;;;0.00;0.00;;;;;9.87;88.22;99544.22;4947857;28;46328;-71
2023/12/09 10:19:56;;;;;;;;;2.50;1.00;;;;;9.94;88.50;99538.75;4946187;28;45413;-73
2023/12/09 10:22:27;;;;;;;;;1.00;0.00;;;;;9.94;88.52;99531.75;4945956;28;45398;-70
2023/12/09 10:24:53;;;;;;;;;0.25;0.25;;;;;9.96;88.41;99527.31;4943739;28;45406;-71
2023/12/09 10:27:19;;;;;;;;;1.00;1.00;;;;;10.00;88.19;99530.63;4944604;28;45621;-70
2023/12/09 10:29:45;;;;;;;;;2.00;1.00;;;;;10.03;87.86;99530.50;4941176;28;45547;-67
2023/12/09 10:32:12;;;;;;;;;1.50;1.00;;;;;10.07;87.75;99525.09;4944360;28;45484;-69
2023/12/09 10:34:38;;;;;;;;;1.00;1.00;;;;;10.14;87.29;99515.19;4949321;28;45453;-70
2023/12/09 10:37:03;;;;;;;;;0.00;0.00;;;;;10.20;87.02;99514.06;4952570;28;46990;-69
2023/12/09 10:39:29;;;;;;;;;1.50;0.00;;;;;10.24;86.79;99526.94;4947310;28;72388;-67
2023/12/09 10:41:56;;;;;;;;;1.00;1.00;;;;;10.30;86.47;99517.09;4947933;28;45336;-69
2023/12/09 10:44:22;;;;;;;;;2.00;1.00;;;;;10.34;87.13;99484.69;4940592;28;45660;-70
2023/12/09 10:46:48;;;;;;;;;1.00;1.00;;;;;10.36;88.18;99498.56;4943950;28;75840;-69
2023/12/09 10:49:13;;;;;;;;;1.00;1.00;;;;;10.39;88.40;99508.88;4943404;28;45565;-67
2023/12/09 10:51:38;;;;;;;;;1.50;1.00;;;;;10.40;88.17;99487.03;4946787;28;68941;-71
2023/12/09 10:54:04;;;;;;;;;1.00;1.00;;;;;10.45;87.65;99461.53;4945338;28;46944;-70
2023/12/09 10:56:29;;;;;;;;;1.00;1.00;;;;;10.50;87.14;99446.47;4945834;28;72636;-68
2023/12/09 10:58:56;;;;;;;;;1.75;1.00;;;;;10.53;86.91;99467.22;4946402;28;45423;-74
2023/12/09 11:01:22;;;;;;;;;1.00;1.00;;;;;10.54;86.97;99458.47;4948356;28;45418;-68
2023/12/09 11:03:47;;;;;;;;;1.25;1.00;;;;;10.55;88.10;99428.78;4945754;28;65096;-68
2023/12/09 11:06:13;;;;;;;;;2.00;1.00;;;;;10.55;87.23;99412.22;4944442;28;64814;-71
2023/12/09 11:08:40;;;;;;;;;0.00;0.00;;;;;10.58;87.41;99412.09;4940730;28;49168;-65
2023/12/09 11:11:07;;;;;;;;;2.00;1.00;;;;;10.59;87.64;99421.63;4945170;28;45334;-67
2023/12/09 11:13:34;;;;;;;;;1.00;1.00;;;;;10.63;88.09;99410.09;4946947;28;45396;-66
2023/12/09 11:16:13;;;;;;;;;1.00;0.00;;;;;10.67;88.29;99416.88;4947377;28;45609;-67
2023/12/09 11:18:54;;;;;;;;;1.00;1.00;;;;;10.70;89.63;99402.81;4935869;28;45908;-68
2023/12/09 11:21:22;;;;;;;;;1.50;0.75;;;;;10.74;88.77;99402.56;4937167;28;45446;-68
2023/12/09 11:23:51;;;;;;;;;1.25;1.00;;;;;10.78;88.83;99418.94;4940173;28;45164;-69
2023/12/09 11:26:19;;;;;;;;;1.00;0.75;;;;;10.83;88.98;99419.56;4944862;28;46285;-66